Time;durP1;ratioP1;P1;durP2;ratioP2;P2;SDS_P1;SDS_P2;PMS_P1;PMS_P2;Temp;Humidity;BMP_temperature;BMP_pressure;BME280_temperature;BME280_humidity;BME280_pressure;Samples;Min_cycle;Max_cycle;Signal;HPM_P1;HPM_P2
2021/09/04 00:00:34;;;;;;;13.80;8.10;;;;;;;;;;756959;182;635260;-69
2021/09/04 00:03:00;;;;;;;11.30;8.80;;;;;;;;;;758850;182;619861;-68
2021/09/04 00:05:26;;;;;;;14.33;9.40;;;;;;;;;;761238;182;628693;-69
2021/09/04 00:07:52;;;;;;;13.30;8.50;;;;;;;;;;757368;182;633451;-69
2021/09/04 00:10:18;;;;;;;16.07;9.33;;;;;;;;;;759681;182;917980;-69
2021/09/04 00:12:43;;;;;;;10.60;8.70;;;;;;;;;;767038;182;637105;-69
2021/09/04 00:15:10;;;;;;;9.33;7.33;;;;;;;;;;757960;182;625766;-70
2021/09/04 00:17:37;;;;;;;11.13;8.37;;;;;;;;;;760891;182;625185;-69
2021/09/04 00:20:03;;;;;;;11.50;8.07;;;;;;;;;;759709;182;619024;-68
2021/09/04 00:22:29;;;;;;;12.30;8.77;;;;;;;;;;756305;182;621936;-69
2021/09/04 00:24:55;;;;;;;9.03;6.87;;;;;;;;;;761563;182;623944;-68
2021/09/04 00:27:21;;;;;;;15.40;8.30;;;;;;;;;;762379;182;669282;-69
2021/09/04 00:29:46;;;;;;;10.90;7.63;;;;;;;;;;760366;182;619570;-71
2021/09/04 00:32:12;;;;;;;12.50;9.20;;;;;;;;;;761674;182;622251;-69
2021/09/04 00:34:38;;;;;;;11.30;7.53;;;;;;;;;;760921;182;635483;-68
2021/09/04 00:37:04;;;;;;;10.93;7.20;;;;;;;;;;760504;182;629892;-69
2021/09/04 00:39:30;;;;;;;8.77;7.30;;;;;;;;;;759578;182;643193;-70
2021/09/04 00:41:56;;;;;;;11.10;7.00;;;;;;;;;;755889;182;636746;-69
2021/09/04 00:44:22;;;;;;;10.70;7.57;;;;;;;;;;759373;183;626786;-70
2021/09/04 00:46:47;;;;;;;11.37;8.00;;;;;;;;;;755988;182;623662;-70
2021/09/04 00:49:13;;;;;;;11.47;8.30;;;;;;;;;;757092;182;632301;-69
2021/09/04 00:51:39;;;;;;;9.20;7.43;;;;;;;;;;755917;185;630516;-68
2021/09/04 00:54:05;;;;;;;15.10;8.60;;;;;;;;;;763082;180;634769;-68
2021/09/04 00:56:31;;;;;;;12.80;7.00;;;;;;;;;;754900;182;628559;-70
2021/09/04 00:58:56;;;;;;;10.37;7.20;;;;;;;;;;756655;181;628671;-68
2021/09/04 01:01:22;;;;;;;12.37;7.50;;;;;;;;;;762162;181;637936;-68
2021/09/04 01:03:48;;;;;;;11.47;8.30;;;;;;;;;;761796;182;625156;-68
2021/09/04 01:06:14;;;;;;;8.67;6.37;;;;;;;;;;758785;182;626965;-67
2021/09/04 01:08:40;;;;;;;16.83;9.57;;;;;;;;;;761380;182;614934;-68
2021/09/04 01:11:06;;;;;;;9.27;6.77;;;;;;;;;;754373;182;918737;-67
2021/09/04 01:13:32;;;;;;;9.17;6.60;;;;;;;;;;759343;182;628679;-67
2021/09/04 01:15:57;;;;;;;11.30;6.47;;;;;;;;;;762120;182;627629;-68
2021/09/04 01:18:23;;;;;;;11.57;6.60;;;;;;;;;;761686;182;624458;-68
2021/09/04 01:20:50;;;;;;;10.30;6.50;;;;;;;;;;754062;182;618982;-67
2021/09/04 01:23:15;;;;;;;9.47;6.90;;;;;;;;;;756867;182;629619;-67
2021/09/04 01:25:42;;;;;;;9.73;6.93;;;;;;;;;;762453;182;616361;-68
2021/09/04 01:28:08;;;;;;;11.67;8.47;;;;;;;;;;744614;185;624668;-68
2021/09/04 01:30:33;;;;;;;10.53;7.40;;;;;;;;;;764050;182;628688;-68
2021/09/04 01:32:59;;;;;;;11.00;8.17;;;;;;;;;;766649;182;616626;-69
2021/09/04 01:35:25;;;;;;;11.37;8.77;;;;;;;;;;759903;182;923106;-68
2021/09/04 01:37:51;;;;;;;9.30;7.10;;;;;;;;;;759892;182;648429;-68
2021/09/04 01:40:17;;;;;;;8.63;5.90;;;;;;;;;;762426;182;634920;-68
2021/09/04 01:42:43;;;;;;;14.03;7.73;;;;;;;;;;757510;182;629442;-68
2021/09/04 01:45:09;;;;;;;10.33;7.30;;;;;;;;;;758062;182;637052;-68
2021/09/04 01:47:35;;;;;;;15.77;6.87;;;;;;;;;;757677;182;638990;-68
2021/09/04 01:50:01;;;;;;;9.77;8.07;;;;;;;;;;769711;182;615156;-67
2021/09/04 01:52:26;;;;;;;8.20;6.57;;;;;;;;;;757154;182;616179;-67
2021/09/04 01:54:52;;;;;;;14.43;6.50;;;;;;;;;;757156;182;617884;-67
2021/09/04 01:57:18;;;;;;;7.40;5.57;;;;;;;;;;760773;182;624205;-67
2021/09/04 01:59:45;;;;;;;9.63;6.30;;;;;;;;;;756039;182;619017;-68
2021/09/04 02:02:10;;;;;;;10.93;7.07;;;;;;;;;;757777;182;622637;-68
2021/09/04 02:04:36;;;;;;;9.30;6.60;;;;;;;;;;758715;182;626860;-68
2021/09/04 02:07:02;;;;;;;17.77;6.27;;;;;;;;;;757804;182;623074;-68
2021/09/04 02:09:27;;;;;;;13.40;6.10;;;;;;;;;;756655;182;634141;-69
2021/09/04 02:11:53;;;;;;;13.77;7.00;;;;;;;;;;752651;181;1256987;-67
2021/09/04 02:14:19;;;;;;;10.30;6.23;;;;;;;;;;769334;181;620767;-67
2021/09/04 02:16:45;;;;;;;10.37;7.07;;;;;;;;;;763068;182;626145;-69
2021/09/04 02:19:11;;;;;;;10.47;7.80;;;;;;;;;;764879;182;630698;-68
2021/09/04 02:21:37;;;;;;;7.00;6.00;;;;;;;;;;763649;182;612714;-68
2021/09/04 02:24:03;;;;;;;8.00;5.83;;;;;;;;;;759510;182;615221;-67
2021/09/04 02:26:28;;;;;;;16.13;7.20;;;;;;;;;;767108;182;629420;-68
2021/09/04 02:28:54;;;;;;;12.33;7.47;;;;;;;;;;761226;182;633228;-67
2021/09/04 02:31:27;;;;;;;12.55;9.30;;;;;;;;;;777836;170;675542;-67
2021/09/04 02:33:53;;;;;;;11.40;8.47;;;;;;;;;;766482;180;619230;-68
2021/09/04 02:36:19;;;;;;;13.20;8.10;;;;;;;;;;767327;180;631020;-68
2021/09/04 02:38:45;;;;;;;10.87;7.93;;;;;;;;;;773863;180;631831;-68
2021/09/04 02:41:11;;;;;;;48.10;9.13;;;;;;;;;;768725;181;617917;-69
2021/09/04 02:43:37;;;;;;;10.88;8.63;;;;;;;;;;769430;181;918904;-68
2021/09/04 02:46:02;;;;;;;11.90;7.77;;;;;;;;;;778698;180;918871;-69
2021/09/04 02:48:28;;;;;;;13.80;9.03;;;;;;;;;;777749;180;669390;-68
2021/09/04 02:50:54;;;;;;;12.40;9.57;;;;;;;;;;764081;180;1840727;-68
2021/09/04 02:53:20;;;;;;;11.40;8.27;;;;;;;;;;770245;180;629929;-69
2021/09/04 02:55:46;;;;;;;10.67;8.30;;;;;;;;;;778853;180;619012;-67
2021/09/04 02:58:12;;;;;;;12.40;7.97;;;;;;;;;;762498;180;637019;-68
2021/09/04 03:00:37;;;;;;;11.53;8.00;;;;;;;;;;767841;181;632848;-68
2021/09/04 03:03:03;;;;;;;12.13;8.53;;;;;;;;;;776655;180;615532;-68
2021/09/04 03:05:31;;;;;;;13.73;9.03;;;;;;;;;;774325;181;644238;-68
2021/09/04 03:07:55;;;;;;;10.47;8.20;;;;;;;;;;772245;180;633891;-68
2021/09/04 03:10:21;;;;;;;12.27;9.40;;;;;;;;;;777563;180;629768;-68
2021/09/04 03:12:47;;;;;;;13.03;8.30;;;;;;;;;;768528;181;632492;-68
2021/09/04 03:15:13;;;;;;;12.00;8.00;;;;;;;;;;774643;180;627598;-68
2021/09/04 03:17:38;;;;;;;13.40;8.87;;;;;;;;;;776162;180;623243;-68
2021/09/04 03:20:05;;;;;;;22.20;8.90;;;;;;;;;;762377;180;618848;-68
2021/09/04 03:22:31;;;;;;;14.90;8.30;;;;;;;;;;770911;180;629650;-69
2021/09/04 03:24:56;;;;;;;11.53;8.73;;;;;;;;;;773163;180;621944;-68
2021/09/04 03:27:22;;;;;;;12.30;8.30;;;;;;;;;;773668;180;624542;-68
2021/09/04 03:29:48;;;;;;;12.40;7.63;;;;;;;;;;771430;180;624016;-68
2021/09/04 03:32:14;;;;;;;11.93;8.13;;;;;;;;;;770060;180;625701;-68
2021/09/04 03:34:40;;;;;;;13.43;9.00;;;;;;;;;;776722;180;629422;-68
2021/09/04 03:37:06;;;;;;;18.13;9.17;;;;;;;;;;768143;180;628787;-67
2021/09/04 03:39:31;;;;;;;11.97;7.63;;;;;;;;;;770413;180;654621;-68
2021/09/04 03:41:57;;;;;;;9.43;6.47;;;;;;;;;;774350;180;638483;-67
2021/09/04 03:44:23;;;;;;;10.77;7.20;;;;;;;;;;766933;183;884346;-68
2021/09/04 03:46:49;;;;;;;9.30;5.60;;;;;;;;;;770811;180;617579;-68
2021/09/04 03:49:15;;;;;;;9.40;7.00;;;;;;;;;;769816;180;635461;-68
2021/09/04 03:51:42;;;;;;;9.63;7.57;;;;;;;;;;778942;180;614423;-68
2021/09/04 03:54:06;;;;;;;11.00;6.53;;;;;;;;;;774632;180;618620;-68
2021/09/04 03:56:32;;;;;;;8.37;6.27;;;;;;;;;;774835;180;632937;-67
2021/09/04 03:58:58;;;;;;;13.37;8.20;;;;;;;;;;775106;180;617748;-68
2021/09/04 04:01:24;;;;;;;7.80;6.67;;;;;;;;;;771809;180;628781;-67
2021/09/04 04:03:50;;;;;;;10.50;6.70;;;;;;;;;;766050;180;620049;-68
2021/09/04 04:06:16;;;;;;;9.47;6.10;;;;;;;;;;771728;180;624815;-68
2021/09/04 04:08:41;;;;;;;8.80;6.20;;;;;;;;;;767433;181;640762;-68
2021/09/04 04:11:08;;;;;;;7.60;6.10;;;;;;;;;;775929;180;618446;-68
2021/09/04 04:13:33;;;;;;;9.97;6.50;;;;;;;;;;771513;180;643799;-68
2021/09/04 04:15:59;;;;;;;13.67;7.60;;;;;;;;;;772086;180;634013;-67
2021/09/04 04:18:25;;;;;;;9.13;6.40;;;;;;;;;;776392;180;627553;-68
2021/09/04 04:20:51;;;;;;;7.93;6.40;;;;;;;;;;772702;180;635456;-70
2021/09/04 04:23:17;;;;;;;8.50;6.80;;;;;;;;;;775925;180;628829;-69
2021/09/04 04:25:42;;;;;;;8.87;6.67;;;;;;;;;;776908;180;629792;-70
2021/09/04 04:28:08;;;;;;;11.07;6.47;;;;;;;;;;771722;180;625015;-68
2021/09/04 04:30:35;;;;;;;9.23;6.70;;;;;;;;;;778543;180;634327;-68
2021/09/04 04:33:01;;;;;;;10.50;7.50;;;;;;;;;;776022;180;629487;-68
2021/09/04 04:35:27;;;;;;;8.60;5.80;;;;;;;;;;771189;180;662407;-69
2021/09/04 04:37:52;;;;;;;9.83;7.20;;;;;;;;;;767350;180;628554;-68
2021/09/04 04:40:18;;;;;;;8.63;5.87;;;;;;;;;;773339;180;628507;-68
2021/09/04 04:42:44;;;;;;;10.00;6.87;;;;;;;;;;773158;181;630239;-68
2021/09/04 04:45:10;;;;;;;10.23;5.83;;;;;;;;;;769041;180;919465;-69
2021/09/04 04:47:36;;;;;;;10.50;6.43;;;;;;;;;;773855;180;623724;-70
2021/09/04 04:50:02;;;;;;;12.20;7.10;;;;;;;;;;768171;180;623698;-69
2021/09/04 04:52:27;;;;;;;9.50;7.57;;;;;;;;;;772539;180;623450;-68
2021/09/04 04:54:53;;;;;;;8.60;6.70;;;;;;;;;;776492;179;622248;-68
2021/09/04 04:57:19;;;;;;;8.37;6.53;;;;;;;;;;764720;180;1612268;-70
2021/09/04 04:59:45;;;;;;;8.00;6.87;;;;;;;;;;771440;180;638468;-69
2021/09/04 05:02:11;;;;;;;9.97;7.57;;;;;;;;;;771106;180;722439;-68
2021/09/04 05:04:37;;;;;;;9.90;7.13;;;;;;;;;;770277;183;624254;-68
2021/09/04 05:07:02;;;;;;;14.40;9.00;;;;;;;;;;774780;180;671615;-68
2021/09/04 05:09:28;;;;;;;15.57;9.30;;;;;;;;;;769656;180;1001136;-68
2021/09/04 05:11:54;;;;;;;16.83;9.83;;;;;;;;;;774914;180;623300;-69
2021/09/04 05:14:20;;;;;;;19.00;10.33;;;;;;;;;;769878;180;623075;-68
2021/09/04 05:16:46;;;;;;;15.57;9.70;;;;;;;;;;767547;180;630551;-68
2021/09/04 05:19:12;;;;;;;13.73;9.97;;;;;;;;;;773399;180;614583;-68
2021/09/04 05:21:38;;;;;;;14.97;11.30;;;;;;;;;;770916;181;628714;-69
2021/09/04 05:24:04;;;;;;;20.47;12.30;;;;;;;;;;774793;180;626799;-69
2021/09/04 05:26:30;;;;;;;17.35;11.45;;;;;;;;;;776364;180;626562;-68
2021/09/04 05:28:56;;;;;;;23.23;12.97;;;;;;;;;;770212;180;633701;-70
2021/09/04 05:31:22;;;;;;;21.07;13.30;;;;;;;;;;774349;180;637963;-68
2021/09/04 05:33:48;;;;;;;18.90;12.97;;;;;;;;;;773873;180;631189;-70
2021/09/04 05:36:13;;;;;;;23.57;14.70;;;;;;;;;;774950;180;634349;-68
2021/09/04 05:38:39;;;;;;;23.47;14.17;;;;;;;;;;770414;180;622554;-68
2021/09/04 05:41:06;;;;;;;28.50;17.37;;;;;;;;;;772106;180;654972;-69
2021/09/04 05:43:31;;;;;;;30.17;18.00;;;;;;;;;;775838;180;636048;-69
2021/09/04 05:45:57;;;;;;;31.67;18.83;;;;;;;;;;773910;180;630061;-71
2021/09/04 05:48:23;;;;;;;34.40;18.40;;;;;;;;;;770531;180;621902;-71
2021/09/04 05:50:48;;;;;;;37.27;22.97;;;;;;;;;;773184;180;637553;-70
2021/09/04 05:53:14;;;;;;;34.33;22.27;;;;;;;;;;766381;180;641431;-72
2021/09/04 05:55:40;;;;;;;45.60;24.40;;;;;;;;;;769962;179;621932;-71
2021/09/04 05:58:06;;;;;;;41.10;25.10;;;;;;;;;;773372;180;632387;-71
2021/09/04 06:00:32;;;;;;;46.07;23.73;;;;;;;;;;775646;180;672285;-71
2021/09/04 06:02:58;;;;;;;38.77;22.43;;;;;;;;;;771885;180;619670;-71
2021/09/04 06:05:24;;;;;;;38.00;23.50;;;;;;;;;;772356;179;662917;-71
2021/09/04 06:07:49;;;;;;;40.03;22.97;;;;;;;;;;775920;180;642124;-70
2021/09/04 06:10:15;;;;;;;38.33;23.33;;;;;;;;;;771227;180;726464;-71
2021/09/04 06:12:41;;;;;;;34.90;22.43;;;;;;;;;;774419;180;638014;-71
2021/09/04 06:15:07;;;;;;;35.00;21.47;;;;;;;;;;770340;180;736908;-70
2021/09/04 06:17:33;;;;;;;30.83;20.63;;;;;;;;;;770921;180;624055;-70
2021/09/04 06:19:59;;;;;;;30.50;19.70;;;;;;;;;;774852;180;665981;-71
2021/09/04 06:22:26;;;;;;;29.43;20.10;;;;;;;;;;775026;180;619393;-70
2021/09/04 06:24:50;;;;;;;28.77;19.17;;;;;;;;;;775864;180;617371;-71
2021/09/04 06:27:16;;;;;;;30.23;16.57;;;;;;;;;;771709;180;618943;-71
2021/09/04 06:29:42;;;;;;;25.30;17.80;;;;;;;;;;769838;180;656410;-70
2021/09/04 06:32:08;;;;;;;27.40;16.03;;;;;;;;;;774770;180;629261;-70
2021/09/04 06:34:34;;;;;;;24.20;15.00;;;;;;;;;;773227;180;619542;-70
2021/09/04 06:37:00;;;;;;;25.40;16.17;;;;;;;;;;770643;181;618234;-70
2021/09/04 06:39:26;;;;;;;19.90;14.20;;;;;;;;;;774843;180;632904;-69
2021/09/04 06:41:51;;;;;;;17.23;13.43;;;;;;;;;;768278;180;618868;-69
2021/09/04 06:44:17;;;;;;;23.10;13.73;;;;;;;;;;769472;180;619975;-69
2021/09/04 06:46:43;;;;;;;15.43;12.33;;;;;;;;;;772440;180;619016;-68
2021/09/04 06:49:09;;;;;;;18.10;13.10;;;;;;;;;;769100;181;629934;-69
2021/09/04 06:51:35;;;;;;;30.43;15.20;;;;;;;;;;769357;180;1206321;-69
2021/09/04 06:54:01;;;;;;;18.83;13.63;;;;;;;;;;771670;180;618055;-70
2021/09/04 06:56:26;;;;;;;19.37;13.03;;;;;;;;;;776237;180;618305;-70
2021/09/04 06:58:52;;;;;;;20.03;13.20;;;;;;;;;;768093;180;893229;-69
2021/09/04 07:01:18;;;;;;;18.37;13.93;;;;;;;;;;769617;180;632237;-69
2021/09/04 07:03:44;;;;;;;18.83;13.10;;;;;;;;;;777852;180;628621;-70
2021/09/04 07:06:10;;;;;;;17.60;12.73;;;;;;;;;;771910;180;629565;-69
2021/09/04 07:08:36;;;;;;;13.83;10.20;;;;;;;;;;770856;181;629097;-70
2021/09/04 07:11:01;;;;;;;13.10;10.70;;;;;;;;;;774747;180;615519;-70
2021/09/04 07:13:28;;;;;;;17.10;9.50;;;;;;;;;;768945;181;638569;-71
2021/09/04 07:15:53;;;;;;;14.90;10.00;;;;;;;;;;769546;180;635000;-70
2021/09/04 07:18:20;;;;;;;15.03;10.97;;;;;;;;;;770290;179;616909;-70
2021/09/04 07:20:47;;;;;;;18.83;11.27;;;;;;;;;;776505;181;630521;-71
2021/09/04 07:23:12;;;;;;;14.50;10.70;;;;;;;;;;772745;180;634826;-70
2021/09/04 07:25:38;;;;;;;12.40;9.63;;;;;;;;;;767795;181;640307;-70
2021/09/04 07:28:06;;;;;;;14.50;9.87;;;;;;;;;;777077;180;628721;-70
2021/09/04 07:30:30;;;;;;;15.50;9.67;;;;;;;;;;768377;180;1148819;-70
2021/09/04 07:32:56;;;;;;;15.83;10.07;;;;;;;;;;771981;180;629251;-69
2021/09/04 07:35:21;;;;;;;19.33;9.47;;;;;;;;;;769479;181;619715;-70
2021/09/04 07:37:47;;;;;;;13.57;9.57;;;;;;;;;;768402;180;620577;-71
2021/09/04 07:40:13;;;;;;;17.50;9.63;;;;;;;;;;770960;180;631316;-70
2021/09/04 07:42:39;;;;;;;16.27;9.20;;;;;;;;;;769286;180;626567;-71
2021/09/04 07:45:05;;;;;;;10.03;7.80;;;;;;;;;;772605;180;632118;-69
2021/09/04 07:47:31;;;;;;;18.30;9.80;;;;;;;;;;771362;180;918096;-70
2021/09/04 07:49:57;;;;;;;13.13;8.77;;;;;;;;;;771502;180;918248;-72
2021/09/04 07:52:23;;;;;;;14.47;8.77;;;;;;;;;;770562;180;633383;-70
2021/09/04 07:54:49;;;;;;;12.70;9.40;;;;;;;;;;767915;182;619882;-70
2021/09/04 07:57:14;;;;;;;13.53;8.90;;;;;;;;;;773360;180;627209;-70
2021/09/04 07:59:40;;;;;;;12.40;8.43;;;;;;;;;;775860;180;623073;-71
2021/09/04 08:02:06;;;;;;;10.57;8.20;;;;;;;;;;770554;180;635339;-70
2021/09/04 08:04:32;;;;;;;10.10;8.43;;;;;;;;;;770391;180;622629;-71
2021/09/04 08:06:58;;;;;;;16.30;9.23;;;;;;;;;;769697;180;642852;-70
2021/09/04 08:09:24;;;;;;;11.53;8.30;;;;;;;;;;777377;180;630318;-71
2021/09/04 08:11:49;;;;;;;11.03;7.90;;;;;;;;;;770571;181;629974;-70
2021/09/04 08:14:15;;;;;;;13.27;8.50;;;;;;;;;;767013;181;616858;-70
2021/09/04 08:16:41;;;;;;;12.40;8.80;;;;;;;;;;772621;180;612682;-70
2021/09/04 08:19:07;;;;;;;10.70;8.03;;;;;;;;;;772295;180;623489;-70
2021/09/04 08:21:33;;;;;;;11.77;8.47;;;;;;;;;;767658;180;626163;-69
2021/09/04 08:23:59;;;;;;;15.00;8.60;;;;;;;;;;775253;180;626124;-71
2021/09/04 08:26:25;;;;;;;10.70;8.30;;;;;;;;;;774866;180;627191;-69
2021/09/04 08:28:50;;;;;;;14.33;9.90;;;;;;;;;;768571;180;643245;-70
2021/09/04 08:31:16;;;;;;;11.10;8.63;;;;;;;;;;769417;180;649851;-70
2021/09/04 08:33:42;;;;;;;10.70;8.17;;;;;;;;;;771936;183;608653;-70
2021/09/04 08:36:08;;;;;;;11.33;8.17;;;;;;;;;;775912;180;620720;-70
2021/09/04 08:38:34;;;;;;;18.53;9.00;;;;;;;;;;772200;180;618628;-71
2021/09/04 08:40:59;;;;;;;12.47;8.37;;;;;;;;;;776806;180;626842;-70
2021/09/04 08:43:25;;;;;;;13.27;8.30;;;;;;;;;;774765;180;626343;-71
2021/09/04 08:45:51;;;;;;;12.77;9.27;;;;;;;;;;774908;180;621751;-69
2021/09/04 08:48:17;;;;;;;11.97;9.00;;;;;;;;;;774683;180;926498;-70
2021/09/04 08:50:43;;;;;;;9.97;7.67;;;;;;;;;;768318;180;911974;-69
2021/09/04 08:53:09;;;;;;;12.70;8.97;;;;;;;;;;769888;180;624092;-70
2021/09/04 08:55:34;;;;;;;13.17;9.50;;;;;;;;;;767744;180;616050;-72
2021/09/04 08:58:00;;;;;;;13.43;8.40;;;;;;;;;;772493;180;628459;-70
2021/09/04 09:00:26;;;;;;;11.33;8.70;;;;;;;;;;775702;180;624921;-70
2021/09/04 09:02:52;;;;;;;21.53;9.37;;;;;;;;;;774222;180;625429;-69
2021/09/04 09:05:18;;;;;;;13.70;10.00;;;;;;;;;;772993;180;619626;-69
2021/09/04 09:07:44;;;;;;;12.60;9.47;;;;;;;;;;775333;180;619267;-69
2021/09/04 09:10:25;;;;;;;14.70;8.43;;;;;;;;;;774876;180;623707;-70
2021/09/04 09:12:51;;;;;;;11.87;8.93;;;;;;;;;;766791;180;678646;-70
2021/09/04 09:15:20;;;;;;;11.77;7.93;;;;;;;;;;772672;180;620697;-70
2021/09/04 09:18:00;;;;;;;11.73;8.43;;;;;;;;;;767218;181;916510;-70
2021/09/04 09:20:26;;;;;;;13.87;8.10;;;;;;;;;;771326;180;626544;-71
2021/09/04 09:22:52;;;;;;;10.27;8.43;;;;;;;;;;770562;180;915137;-71
2021/09/04 09:25:18;;;;;;;14.40;9.73;;;;;;;;;;773639;180;629565;-70
2021/09/04 09:27:50;;;;;;;13.33;9.30;;;;;;;;;;770740;181;624419;-69
2021/09/04 09:30:16;;;;;;;12.57;9.00;;;;;;;;;;772610;180;625525;-70
2021/09/04 09:32:41;;;;;;;12.63;8.40;;;;;;;;;;773467;180;626706;-71
2021/09/04 09:35:07;;;;;;;14.80;8.90;;;;;;;;;;773907;180;648207;-71
2021/09/04 09:37:33;;;;;;;10.87;8.73;;;;;;;;;;776526;180;619354;-70
2021/09/04 09:39:59;;;;;;;15.00;10.23;;;;;;;;;;777922;180;631302;-71
2021/09/04 09:42:25;;;;;;;15.17;10.47;;;;;;;;;;777583;180;631726;-70
2021/09/04 09:44:51;;;;;;;15.13;10.00;;;;;;;;;;773387;180;633007;-72
2021/09/04 09:47:17;;;;;;;14.90;9.17;;;;;;;;;;769857;180;617685;-69
2021/09/04 09:49:42;;;;;;;18.13;9.27;;;;;;;;;;766334;180;1511782;-69
2021/09/04 09:52:08;;;;;;;13.13;11.53;;;;;;;;;;778134;180;622680;-71
2021/09/04 09:54:34;;;;;;;11.03;9.30;;;;;;;;;;768647;180;636397;-70
2021/09/04 09:57:00;;;;;;;13.60;10.77;;;;;;;;;;769959;180;626332;-70
2021/09/04 09:59:31;;;;;;;14.93;9.10;;;;;;;;;;777657;180;653282;-69
2021/09/04 10:01:56;;;;;;;12.33;8.40;;;;;;;;;;773001;180;628106;-70
2021/09/04 10:04:22;;;;;;;12.37;8.20;;;;;;;;;;771442;180;622294;-71
2021/09/04 10:06:48;;;;;;;17.40;9.77;;;;;;;;;;772416;180;628491;-70
2021/09/04 10:09:14;;;;;;;10.07;8.23;;;;;;;;;;773090;180;632213;-69
2021/09/04 10:11:39;;;;;;;13.67;8.23;;;;;;;;;;771715;180;631142;-71
2021/09/04 10:14:06;;;;;;;11.87;8.87;;;;;;;;;;772685;180;628241;-72
2021/09/04 10:16:31;;;;;;;12.90;8.17;;;;;;;;;;774406;180;628720;-70
2021/09/04 10:18:57;;;;;;;11.60;8.40;;;;;;;;;;768481;181;631459;-71
2021/09/04 10:21:23;;;;;;;10.80;8.57;;;;;;;;;;769798;180;636064;-71
2021/09/04 10:23:49;;;;;;;9.00;7.37;;;;;;;;;;772196;180;625546;-70
2021/09/04 10:26:20;;;;;;;13.00;7.33;;;;;;;;;;769007;180;631390;-71
2021/09/04 10:28:52;;;;;;;13.43;8.93;;;;;;;;;;772890;180;630248;-71
2021/09/04 10:31:18;;;;;;;11.93;8.07;;;;;;;;;;773318;180;621268;-72
2021/09/04 10:33:43;;;;;;;14.17;8.90;;;;;;;;;;771096;180;626865;-70
2021/09/04 10:36:09;;;;;;;11.50;7.90;;;;;;;;;;771123;180;627959;-70
2021/09/04 10:38:35;;;;;;;10.60;8.20;;;;;;;;;;769136;181;632383;-70
2021/09/04 10:41:16;;;;;;;13.10;8.03;;;;;;;;;;776651;180;617121;-70
2021/09/04 10:43:44;;;;;;;11.70;7.80;;;;;;;;;;771824;183;639911;-70
2021/09/04 10:46:11;;;;;;;11.97;8.93;;;;;;;;;;768045;180;627137;-70
2021/09/04 10:48:37;;;;;;;10.90;9.30;;;;;;;;;;776198;180;654431;-70
2021/09/04 10:51:03;;;;;;;12.47;10.50;;;;;;;;;;768045;181;633852;-68
2021/09/04 10:53:34;;;;;;;13.47;10.67;;;;;;;;;;779057;180;627395;-69
2021/09/04 10:56:00;;;;;;;12.33;9.87;;;;;;;;;;772884;179;632355;-72
2021/09/04 10:58:27;;;;;;;10.77;8.27;;;;;;;;;;773042;180;623901;-71
2021/09/04 11:00:53;;;;;;;12.17;9.20;;;;;;;;;;770220;180;617507;-69
2021/09/04 11:03:20;;;;;;;11.70;9.23;;;;;;;;;;771056;181;642258;-70
2021/09/04 11:05:46;;;;;;;15.43;9.37;;;;;;;;;;774089;180;616717;-70
2021/09/04 11:08:12;;;;;;;15.10;10.23;;;;;;;;;;771353;180;632615;-71
2021/09/04 11:10:38;;;;;;;14.30;10.33;;;;;;;;;;773244;180;629253;-72
2021/09/04 11:13:05;;;;;;;11.80;9.00;;;;;;;;;;769569;180;619041;-70
2021/09/04 11:15:31;;;;;;;11.77;9.00;;;;;;;;;;770373;180;633817;-69
2021/09/04 11:17:56;;;;;;;13.20;8.03;;;;;;;;;;775336;180;613642;-69
2021/09/04 11:20:22;;;;;;;13.87;9.40;;;;;;;;;;772366;180;631965;-69
2021/09/04 11:22:48;;;;;;;13.63;8.90;;;;;;;;;;777008;180;620207;-70
2021/09/04 11:25:14;;;;;;;15.70;9.90;;;;;;;;;;773482;180;645717;-69
2021/09/04 11:27:40;;;;;;;11.80;9.73;;;;;;;;;;767707;182;635553;-68
2021/09/04 11:30:06;;;;;;;16.70;9.93;;;;;;;;;;773837;180;637391;-69
2021/09/04 11:32:33;;;;;;;12.77;10.30;;;;;;;;;;767306;181;627283;-69
2021/09/04 11:34:58;;;;;;;15.00;9.80;;;;;;;;;;771910;180;616983;-69
2021/09/04 11:37:25;;;;;;;12.97;9.67;;;;;;;;;;771019;180;620287;-68
2021/09/04 11:39:51;;;;;;;14.27;11.70;;;;;;;;;;767858;180;638623;-69
2021/09/04 11:42:17;;;;;;;16.27;10.30;;;;;;;;;;770632;180;614817;-69
2021/09/04 11:44:44;;;;;;;13.27;11.20;;;;;;;;;;774616;180;634829;-68
2021/09/04 11:47:10;;;;;;;14.70;9.53;;;;;;;;;;768226;180;633767;-70
2021/09/04 11:49:41;;;;;;;14.10;9.60;;;;;;;;;;771619;180;648262;-71
2021/09/04 11:52:07;;;;;;;13.67;9.87;;;;;;;;;;778074;180;637944;-69
2021/09/04 11:54:33;;;;;;;13.70;9.40;;;;;;;;;;769094;181;619671;-69
2021/09/04 11:56:59;;;;;;;16.43;9.53;;;;;;;;;;768326;180;633667;-71
2021/09/04 11:59:24;;;;;;;11.90;10.33;;;;;;;;;;770798;182;618394;-70
2021/09/04 12:01:50;;;;;;;15.43;10.97;;;;;;;;;;770535;179;638729;-69
2021/09/04 12:04:16;;;;;;;12.60;8.60;;;;;;;;;;765853;180;642499;-69
2021/09/04 12:06:47;;;;;;;11.60;8.70;;;;;;;;;;766644;180;632946;-68
2021/09/04 12:09:13;;;;;;;11.77;8.90;;;;;;;;;;776093;180;641454;-70
2021/09/04 12:11:38;;;;;;;11.57;8.50;;;;;;;;;;776750;180;622320;-71
2021/09/04 12:14:04;;;;;;;10.43;8.43;;;;;;;;;;771203;180;633393;-69
2021/09/04 12:16:30;;;;;;;13.43;8.40;;;;;;;;;;776564;180;665809;-70
2021/09/04 12:18:57;;;;;;;8.90;7.87;;;;;;;;;;768648;180;634095;-68
2021/09/04 12:21:22;;;;;;;11.83;9.13;;;;;;;;;;771605;180;629530;-70
2021/09/04 12:23:48;;;;;;;12.73;8.70;;;;;;;;;;770363;181;646208;-67
2021/09/04 12:26:13;;;;;;;12.23;8.70;;;;;;;;;;775787;180;636914;-69
2021/09/04 12:28:39;;;;;;;10.47;8.13;;;;;;;;;;772698;180;620049;-71
2021/09/04 12:31:08;;;;;;;10.90;8.53;;;;;;;;;;764622;180;651184;-69
2021/09/04 12:33:33;;;;;;;13.13;8.03;;;;;;;;;;775566;180;622812;-69
2021/09/04 12:35:59;;;;;;;13.63;9.13;;;;;;;;;;771852;180;626306;-68
2021/09/04 12:38:25;;;;;;;15.03;8.80;;;;;;;;;;768664;180;642341;-71
2021/09/04 12:40:59;;;;;;;17.20;8.33;;;;;;;;;;777108;180;624270;-71
2021/09/04 12:43:25;;;;;;;13.73;8.80;;;;;;;;;;772745;183;620907;-70
2021/09/04 12:45:56;;;;;;;12.60;8.30;;;;;;;;;;766251;180;641683;-70
2021/09/04 12:48:28;;;;;;;11.33;8.27;;;;;;;;;;766082;180;663028;-70
2021/09/04 12:51:00;;;;;;;17.03;8.50;;;;;;;;;;768753;180;624848;-69
2021/09/04 12:53:26;;;;;;;12.90;8.33;;;;;;;;;;770355;181;638259;-68
2021/09/04 12:55:52;;;;;;;11.37;8.13;;;;;;;;;;764313;182;638433;-68
2021/09/04 12:58:17;;;;;;;14.40;8.03;;;;;;;;;;772634;180;636992;-70
2021/09/04 13:00:44;;;;;;;9.02;7.37;;;;;;;;;;772260;180;629033;-69
2021/09/04 13:03:10;;;;;;;11.37;8.63;;;;;;;;;;768290;181;626925;-69
2021/09/04 13:05:35;;;;;;;9.50;7.37;;;;;;;;;;765016;183;630798;-69
2021/09/04 13:08:03;;;;;;;9.47;7.40;;;;;;;;;;769571;180;627193;-70
2021/09/04 13:10:27;;;;;;;10.50;7.90;;;;;;;;;;772344;181;625197;-69
2021/09/04 13:12:53;;;;;;;11.47;8.00;;;;;;;;;;772328;180;637407;-69
2021/09/04 13:15:19;;;;;;;20.63;10.03;;;;;;;;;;775013;178;641127;-69
2021/09/04 13:17:45;;;;;;;14.00;7.40;;;;;;;;;;777670;180;624360;-70
2021/09/04 13:20:11;;;;;;;9.40;7.17;;;;;;;;;;779529;179;650467;-70
2021/09/04 13:22:38;;;;;;;12.30;6.97;;;;;;;;;;773484;180;629643;-70
2021/09/04 13:25:04;;;;;;;10.20;7.07;;;;;;;;;;776210;180;626234;-69
2021/09/04 13:27:29;;;;;;;10.40;7.50;;;;;;;;;;772837;183;630705;-70
2021/09/04 13:29:55;;;;;;;11.37;7.50;;;;;;;;;;768595;180;636478;-71
2021/09/04 13:32:21;;;;;;;10.80;7.30;;;;;;;;;;772745;180;629225;-69
2021/09/04 13:34:47;;;;;;;10.57;8.30;;;;;;;;;;778278;180;628225;-69
2021/09/04 13:37:13;;;;;;;16.67;7.70;;;;;;;;;;763879;180;619503;-70
2021/09/04 13:39:39;;;;;;;11.70;8.90;;;;;;;;;;769367;180;638145;-71
2021/09/04 13:42:05;;;;;;;10.73;7.33;;;;;;;;;;773359;181;623732;-69
2021/09/04 13:44:30;;;;;;;11.27;7.90;;;;;;;;;;771671;180;638799;-69
2021/09/04 13:46:56;;;;;;;12.33;9.07;;;;;;;;;;769530;180;618761;-69
2021/09/04 13:49:22;;;;;;;16.07;8.53;;;;;;;;;;776050;180;728398;-69
2021/09/04 13:51:48;;;;;;;13.93;8.17;;;;;;;;;;770551;180;644426;-68
2021/09/04 13:54:14;;;;;;;12.23;9.10;;;;;;;;;;753667;180;3636958;-67
2021/09/04 13:56:40;;;;;;;14.47;7.63;;;;;;;;;;761459;181;637749;-68
2021/09/04 13:59:05;;;;;;;10.20;8.60;;;;;;;;;;773906;180;635262;-69
2021/09/04 14:01:31;;;;;;;11.63;8.97;;;;;;;;;;773642;180;631164;-69
2021/09/04 14:03:57;;;;;;;10.53;7.90;;;;;;;;;;768018;181;630962;-68
2021/09/04 14:06:23;;;;;;;12.37;9.57;;;;;;;;;;773052;181;625931;-69
2021/09/04 14:08:49;;;;;;;9.93;7.60;;;;;;;;;;769609;181;638424;-69